createdAt,value
2018-06-23T00:01:55.702Z,54.30
2018-06-23T00:04:24.380Z,54.20
2018-06-23T00:06:53.556Z,54.20
2018-06-23T00:09:21.975Z,53.90
2018-06-23T00:11:51.550Z,53.70
2018-06-23T00:14:20.147Z,53.90
2018-06-23T00:16:48.953Z,53.90
2018-06-23T00:19:17.674Z,54.00
2018-06-23T00:21:46.293Z,53.90
2018-06-23T00:24:15.547Z,53.90
2018-06-23T00:26:44.289Z,53.90
2018-06-23T00:29:12.531Z,53.80
2018-06-23T00:31:40.795Z,53.90
2018-06-23T00:34:09.384Z,53.90
2018-06-23T00:36:37.836Z,54.00
2018-06-23T00:39:08.056Z,54.10
2018-06-23T00:41:36.397Z,54.00
2018-06-23T00:44:05.023Z,54.30
2018-06-23T00:46:33.282Z,54.50
2018-06-23T00:49:01.761Z,54.40
2018-06-23T00:51:29.963Z,54.40
2018-06-23T00:53:58.431Z,54.50
2018-06-23T00:56:26.619Z,54.60
2018-06-23T00:59:06.319Z,54.60
2018-06-23T01:01:34.811Z,54.40
2018-06-23T01:04:03.520Z,54.30
2018-06-23T01:06:31.810Z,54.30
2018-06-23T01:09:00.214Z,54.30
2018-06-23T01:11:28.663Z,54.90
2018-06-23T01:14:02.062Z,54.30
2018-06-23T01:16:30.298Z,54.10
2018-06-23T01:18:58.802Z,54.00
2018-06-23T01:21:27.103Z,54.10
2018-06-23T01:24:39.962Z,54.20
2018-06-23T01:27:08.326Z,54.10
2018-06-23T01:29:37.032Z,54.10
2018-06-23T01:32:05.262Z,54.00
2018-06-23T01:34:33.496Z,54.10
2018-06-23T01:37:01.745Z,54.20
2018-06-23T01:39:44.656Z,54.20
2018-06-23T01:42:13.152Z,54.10
2018-06-23T01:44:42.518Z,54.20
2018-06-23T01:47:11.046Z,54.30
2018-06-23T01:49:39.316Z,54.20
2018-06-23T01:52:07.558Z,54.10
2018-06-23T01:54:36.026Z,54.20
2018-06-23T01:59:32.279Z,54.50
2018-06-23T02:02:00.550Z,54.40
2018-06-23T02:04:28.803Z,54.40
2018-06-23T02:06:57.941Z,54.50
2018-06-23T02:09:26.441Z,54.40
2018-06-23T02:11:54.899Z,54.40
2018-06-23T02:17:02.049Z,54.20
2018-06-23T02:19:35.667Z,54.30
2018-06-23T02:22:09.529Z,54.20
2018-06-23T02:24:44.337Z,53.60
2018-06-23T02:27:17.912Z,54.90
2018-06-23T02:29:51.543Z,54.40
2018-06-23T02:32:25.239Z,54.50
2018-06-23T02:35:00.303Z,54.50
2018-06-23T02:37:28.567Z,54.30
2018-06-23T02:39:57.620Z,54.10
2018-06-23T02:42:26.240Z,54.00
2018-06-23T02:44:54.710Z,54.00
2018-06-23T02:47:22.964Z,54.00
2018-06-23T02:49:54.158Z,54.00
2018-06-23T02:52:22.352Z,54.00
2018-06-23T02:54:51.609Z,54.10
2018-06-23T02:57:20.140Z,53.90
2018-06-23T02:59:48.370Z,54.00
2018-06-23T03:02:16.823Z,54.00
2018-06-23T03:04:46.020Z,54.00
2018-06-23T03:07:15.003Z,54.10
2018-06-23T03:09:43.799Z,54.10
2018-06-23T03:12:13.067Z,54.20
2018-06-23T03:14:41.604Z,54.50
2018-06-23T03:17:15.158Z,54.50
2018-06-23T03:19:45.612Z,54.80
2018-06-23T03:22:14.183Z,55.10
2018-06-23T03:24:44.290Z,55.20
2018-06-23T03:27:12.734Z,55.50
2018-06-23T03:29:41.333Z,55.60
2018-06-23T03:32:10.598Z,55.70
2018-06-23T03:34:39.699Z,55.60
2018-06-23T03:37:09.259Z,55.70
2018-06-23T03:39:38.509Z,55.90
2018-06-23T03:42:07.320Z,56.00
2018-06-23T03:44:37.699Z,56.50
2018-06-23T03:47:06.019Z,56.00
2018-06-23T03:49:35.830Z,56.00
2018-06-23T03:52:06.110Z,56.00
2018-06-23T03:54:37.911Z,56.00
2018-06-23T03:57:06.240Z,56.00
2018-06-23T03:59:35.011Z,55.80
2018-06-23T04:02:03.250Z,55.50
2018-06-23T04:04:31.696Z,55.20
2018-06-23T04:06:59.944Z,55.00
2018-06-23T04:09:30.679Z,54.80
2018-06-23T04:11:59.634Z,54.80
2018-06-23T04:14:27.935Z,55.20
2018-06-23T04:16:56.179Z,55.00
2018-06-23T04:19:24.522Z,54.40
2018-06-23T04:21:52.975Z,54.40
2018-06-23T04:24:21.162Z,54.40
2018-06-23T04:26:49.416Z,54.70
2018-06-23T04:29:17.746Z,54.60
2018-06-23T04:31:45.970Z,54.50
2018-06-23T04:34:14.462Z,54.70
2018-06-23T04:36:42.892Z,54.90
2018-06-23T04:39:11.171Z,54.80
2018-06-23T04:41:39.390Z,54.80
2018-06-23T04:44:07.613Z,54.90
2018-06-23T04:46:35.985Z,55.00
2018-06-23T04:49:04.543Z,54.90
2018-06-23T04:51:32.791Z,54.90
2018-06-23T04:54:01.058Z,55.00
2018-06-23T04:56:29.333Z,55.00
2018-06-23T04:58:57.711Z,55.00
2018-06-23T05:01:26.050Z,54.90
2018-06-23T05:03:58.794Z,55.10
2018-06-23T05:06:27.975Z,55.30
2018-06-23T05:08:56.553Z,55.20
2018-06-23T05:11:25.743Z,55.20
2018-06-23T05:13:54.023Z,55.20
2018-06-23T05:16:22.345Z,55.10
2018-06-23T05:18:51.135Z,55.20
2018-06-23T05:21:19.416Z,55.10
2018-06-23T05:23:48.376Z,55.20
2018-06-23T05:26:16.651Z,55.20
2018-06-23T05:28:44.904Z,55.20
2018-06-23T05:31:14.737Z,55.20
2018-06-23T05:33:43.050Z,55.20
2018-06-23T05:36:11.367Z,55.10
2018-06-23T05:38:40.403Z,55.20
2018-06-23T05:41:08.826Z,55.20
2018-06-23T05:43:37.148Z,55.10
2018-06-23T05:46:05.469Z,55.30
2018-06-23T05:48:33.966Z,55.40
2018-06-23T05:51:02.232Z,55.30
2018-06-23T05:53:30.714Z,55.40
2018-06-23T05:55:58.939Z,55.30
2018-06-23T05:58:27.170Z,55.20
2018-06-23T06:00:55.427Z,55.10
2018-06-23T06:03:23.966Z,54.90
2018-06-23T06:05:52.328Z,54.80
2018-06-23T06:08:20.611Z,54.80
2018-06-23T06:10:48.925Z,54.80
2018-06-23T06:15:50.615Z,54.80
2018-06-23T06:18:18.939Z,54.50
2018-06-23T06:20:47.183Z,54.50
2018-06-23T06:23:15.571Z,54.60
2018-06-23T06:25:44.181Z,54.40
2018-06-23T06:28:12.674Z,54.40
2018-06-23T06:33:24.419Z,54.40
2018-06-23T06:35:52.791Z,54.30
2018-06-23T06:38:22.090Z,53.80
2018-06-23T06:40:50.802Z,53.90
2018-06-23T06:43:19.080Z,53.90
2018-06-23T06:45:47.359Z,54.10
2018-06-23T06:48:15.627Z,54.00
2018-06-23T06:50:45.205Z,54.00
2018-06-23T06:53:13.946Z,54.00
2018-06-23T06:55:43.019Z,54.00
2018-06-23T06:58:13.164Z,53.80
2018-06-23T07:00:41.483Z,53.80
2018-06-23T07:03:09.791Z,53.70
2018-06-23T07:05:38.075Z,53.70
2018-06-23T07:08:06.312Z,53.50
2018-06-23T07:13:03.630Z,53.50
2018-06-23T07:15:31.952Z,53.30
2018-06-23T07:18:00.162Z,53.30
2018-06-23T07:20:42.906Z,53.10
2018-06-23T07:23:11.296Z,52.90
2018-06-23T07:25:39.672Z,52.90
2018-06-23T07:28:07.914Z,52.80
2018-06-23T07:30:36.308Z,52.60
2018-06-23T07:35:33.247Z,52.10
2018-06-23T07:38:01.541Z,52.10
2018-06-23T07:40:30.078Z,52.10
2018-06-23T07:42:58.380Z,52.20
2018-06-23T07:45:27.469Z,52.20
2018-06-23T07:47:55.766Z,51.80
2018-06-23T07:50:24.250Z,51.50
2018-06-23T07:52:59.140Z,51.30
2018-06-23T07:55:27.663Z,50.70
2018-06-23T07:57:56.765Z,50.50
2018-06-23T08:00:30.878Z,50.30
2018-06-23T08:03:10.122Z,50.70
2018-06-23T08:05:40.794Z,51.10
2018-06-23T08:08:10.635Z,50.80
2018-06-23T08:10:39.198Z,50.70
2018-06-23T08:13:08.418Z,50.50
2018-06-23T08:15:36.741Z,50.20
2018-06-23T08:18:05.614Z,50.00
2018-06-23T08:20:33.992Z,49.80
2018-06-23T08:23:07.663Z,48.90
2018-06-23T08:25:36.825Z,48.10
2018-06-23T08:28:05.134Z,47.20
2018-06-23T08:30:34.200Z,46.20
2018-06-23T08:33:03.854Z,44.90
2018-06-23T08:35:35.670Z,44.30
2018-06-23T08:38:05.273Z,44.20
2018-06-23T08:40:35.175Z,43.80
2018-06-23T08:43:05.528Z,43.20
2018-06-23T08:45:34.240Z,43.60
2018-06-23T08:48:05.307Z,42.90
2018-06-23T08:50:35.400Z,43.30
2018-06-23T08:53:34.150Z,44.20
2018-06-23T08:56:02.840Z,45.40
2018-06-23T08:58:31.122Z,45.50
2018-06-23T09:03:34.846Z,45.50
2018-06-23T09:06:04.638Z,45.30
2018-06-23T09:08:34.044Z,45.30
2018-06-23T09:13:30.632Z,45.50
2018-06-23T09:15:59.283Z,45.00
2018-06-23T09:18:27.535Z,44.70
2018-06-23T09:20:55.852Z,44.70
2018-06-23T09:23:24.413Z,44.70
2018-06-23T09:25:52.825Z,44.10
2018-06-23T09:30:49.254Z,43.20
2018-06-23T09:33:17.943Z,43.30
2018-06-23T09:35:47.387Z,43.20
2018-06-23T09:38:17.726Z,42.40
2018-06-23T09:41:04.287Z,42.00
2018-06-23T09:43:32.660Z,39.30
2018-06-23T09:46:01.202Z,35.80
2018-06-23T09:48:30.705Z,33.40
2018-06-23T09:50:59.818Z,32.30
2018-06-23T09:53:28.302Z,31.80
2018-06-23T09:55:56.584Z,30.90
2018-06-23T09:58:25.327Z,29.90
2018-06-23T10:00:53.630Z,29.60
2018-06-23T10:03:22.170Z,30.10
2018-06-23T10:05:50.494Z,30.10
2018-06-23T10:08:19.025Z,31.30
2018-06-23T10:10:48.531Z,30.20
2018-06-23T10:13:16.820Z,30.00
2018-06-23T10:15:45.202Z,30.00
2018-06-23T10:18:14.060Z,29.90
2018-06-23T10:20:42.355Z,30.00
2018-06-23T10:23:11.165Z,29.90
2018-06-23T10:25:40.867Z,30.00
2018-06-23T10:28:10.059Z,30.30
2018-06-23T10:30:40.845Z,30.00
2018-06-23T10:33:09.939Z,30.20
2018-06-23T10:35:40.008Z,29.90
2018-06-23T10:38:09.443Z,29.90
2018-06-23T10:40:38.774Z,29.60
2018-06-23T10:43:13.125Z,29.70
2018-06-23T10:45:45.130Z,29.80
2018-06-23T11:16:44.914Z,33.00
2018-06-23T11:22:52.954Z,33.80
2018-06-23T11:25:23.280Z,33.90
2018-06-23T11:27:52.648Z,33.90
2018-06-23T11:30:22.095Z,33.20
2018-06-23T11:32:50.786Z,33.80
2018-06-23T11:35:20.355Z,33.90
2018-06-23T11:37:48.968Z,34.00
2018-06-23T11:40:17.863Z,33.90
2018-06-23T11:42:46.110Z,33.60
2018-06-23T11:45:15.474Z,33.10
2018-06-23T11:47:44.141Z,32.90
2018-06-23T11:52:45.359Z,32.80
2018-06-23T11:55:14.960Z,32.30
2018-06-23T11:57:44.563Z,32.50
2018-06-23T12:00:18.049Z,32.60
2018-06-23T12:02:56.265Z,33.20
2018-06-23T12:05:29.804Z,33.10
2018-06-23T12:10:28.715Z,35.00
2018-06-23T12:12:58.951Z,36.30
2018-06-23T12:18:03.262Z,36.90
2018-06-23T12:20:35.729Z,37.00
2018-06-23T12:26:13.726Z,38.90
2018-06-23T12:28:43.811Z,38.80
2018-06-23T12:31:30.579Z,39.10
2018-06-23T12:34:09.959Z,39.80
2018-06-23T12:36:40.085Z,40.60
2018-06-23T12:39:14.227Z,41.00
2018-06-23T12:41:49.418Z,41.10
2018-06-23T12:44:38.210Z,40.80
2018-06-23T12:47:10.966Z,41.50
2018-06-23T12:49:51.155Z,41.80
2018-06-23T12:52:19.944Z,41.70
2018-06-23T12:54:52.912Z,42.10
2018-06-23T12:57:32.568Z,42.60
2018-06-23T13:00:06.126Z,42.90
2018-06-23T13:05:38.839Z,42.20
2018-06-23T13:08:15.108Z,40.60
2018-06-23T13:19:39.875Z,37.60
2018-06-23T13:22:11.536Z,37.20
2018-06-23T13:24:44.013Z,37.60
2018-06-23T13:29:53.530Z,37.50
2018-06-23T13:32:23.655Z,37.30
2018-06-23T13:35:06.811Z,38.30
2018-06-23T13:37:39.279Z,37.70
2018-06-23T13:40:12.875Z,36.90
2018-06-23T13:42:47.967Z,37.10
2018-06-23T13:45:19.168Z,37.60
2018-06-23T13:48:01.923Z,37.40
2018-06-23T13:50:33.627Z,37.40
2018-06-23T13:53:05.648Z,37.30
2018-06-23T13:55:39.227Z,36.50
2018-06-23T13:58:15.603Z,36.70
2018-06-23T14:00:57.290Z,36.90
2018-06-23T14:03:28.351Z,36.60
2018-06-23T14:05:57.014Z,36.10
2018-06-23T14:08:28.978Z,36.20
2018-06-23T14:10:58.362Z,35.90
2018-06-23T14:13:26.980Z,34.90
2018-06-23T14:15:56.367Z,34.80
2018-06-23T14:18:25.507Z,35.10
2018-06-23T14:20:55.353Z,35.20
2018-06-23T14:23:24.700Z,34.80
2018-06-23T14:25:53.513Z,34.30
2018-06-23T14:28:21.754Z,34.50
2018-06-23T14:30:50.631Z,34.10
2018-06-23T14:33:23.920Z,34.30
2018-06-23T14:35:53.341Z,34.60
2018-06-23T14:38:21.822Z,34.30
2018-06-23T14:40:52.295Z,34.30
2018-06-23T14:43:21.702Z,34.70
2018-06-23T14:45:50.708Z,35.40
2018-06-23T14:48:19.264Z,35.10
2018-06-23T14:50:47.974Z,33.90
2018-06-23T14:53:18.503Z,32.50
2018-06-23T14:55:47.008Z,32.00
2018-06-23T14:58:15.816Z,31.50
2018-06-23T15:00:45.096Z,30.60
2018-06-23T15:03:21.894Z,30.70
2018-06-23T15:05:50.703Z,30.40
2018-06-23T15:08:32.056Z,29.50
2018-06-23T15:11:12.039Z,29.20
2018-06-23T15:13:43.355Z,29.20
2018-06-23T15:16:11.631Z,28.10
2018-06-23T15:18:43.699Z,27.80
2018-06-23T15:21:13.267Z,26.90
2018-06-23T15:23:42.946Z,27.00
2018-06-23T15:26:12.286Z,26.70
2018-06-23T15:28:43.347Z,26.90
2018-06-23T15:31:12.583Z,26.50
2018-06-23T15:33:41.660Z,26.30
2018-06-23T15:36:10.744Z,26.20
2018-06-23T15:38:43.980Z,26.20
2018-06-23T15:41:14.632Z,26.20
2018-06-23T15:43:43.146Z,26.30
2018-06-23T15:46:11.484Z,26.20
2018-06-23T15:48:39.816Z,26.60
2018-06-23T15:51:13.795Z,26.20
2018-06-23T15:53:43.093Z,25.80
2018-06-23T15:56:11.593Z,25.60
2018-06-23T15:58:40.147Z,26.20
2018-06-23T16:01:09.572Z,26.80
2018-06-23T16:03:38.346Z,26.40
2018-06-23T16:06:06.651Z,26.40
2018-06-23T16:08:34.982Z,26.20
2018-06-23T16:11:04.526Z,26.30
2018-06-23T16:13:39.534Z,26.40
2018-06-23T16:16:21.190Z,26.50
2018-06-23T16:18:50.611Z,26.60
2018-06-23T16:21:19.067Z,25.70
2018-06-23T16:23:48.045Z,25.70
2018-06-23T16:31:14.640Z,26.70
2018-06-23T16:33:46.851Z,27.90
2018-06-23T16:36:16.677Z,28.20
2018-06-23T16:38:45.394Z,28.20
2018-06-23T16:41:18.349Z,28.40
2018-06-23T16:43:50.811Z,29.00
2018-06-23T16:46:23.464Z,29.40
2018-06-23T16:48:53.855Z,29.90
2018-06-23T16:51:24.788Z,30.70
2018-06-23T16:56:24.418Z,31.30
2018-06-23T16:58:55.122Z,31.30
2018-06-23T17:01:24.616Z,31.60
2018-06-23T17:04:04.043Z,32.00
2018-06-23T17:06:33.354Z,32.10
2018-06-23T17:09:03.080Z,34.90
2018-06-23T17:11:35.787Z,35.80
2018-06-23T17:14:12.328Z,36.50
2018-06-23T17:16:43.907Z,36.20
2018-06-23T17:19:12.515Z,36.10
2018-06-23T17:24:40.898Z,37.50
2018-06-23T17:27:10.887Z,38.60
2018-06-23T17:29:40.199Z,38.70
2018-06-23T17:32:09.859Z,39.20
2018-06-23T17:34:42.802Z,39.10
2018-06-23T17:37:12.347Z,39.20
2018-06-23T17:39:42.832Z,40.00
2018-06-23T17:42:12.014Z,40.50
2018-06-23T17:44:46.989Z,41.10
2018-06-23T17:47:25.390Z,41.10
2018-06-23T17:49:56.906Z,41.00
2018-06-23T17:52:28.366Z,40.90
2018-06-23T18:05:41.791Z,41.80
2018-06-23T18:08:12.419Z,41.30
2018-06-23T18:10:41.941Z,41.20
2018-06-23T18:13:15.113Z,41.50
2018-06-23T18:15:46.469Z,41.80
2018-06-23T18:18:16.258Z,42.20
2018-06-23T18:29:03.252Z,42.40
2018-06-23T18:31:37.107Z,43.00
2018-06-23T18:34:40.536Z,43.30
2018-06-23T18:39:41.224Z,43.00
2018-06-23T18:42:13.711Z,42.90
2018-06-23T18:44:46.593Z,43.40
2018-06-23T18:47:16.454Z,43.40
2018-06-23T18:49:48.958Z,43.50
2018-06-23T18:52:21.279Z,43.40
2018-06-23T18:55:01.470Z,43.50
2018-06-23T18:57:30.282Z,42.80
2018-06-23T19:00:04.304Z,42.20
2018-06-23T19:02:33.667Z,42.70
2018-06-23T19:08:21.032Z,43.00
2018-06-23T19:10:49.530Z,42.80
2018-06-23T19:13:30.005Z,42.70
2018-06-23T19:15:58.738Z,42.70
2018-06-23T19:18:29.087Z,42.70
2018-06-23T19:20:57.511Z,42.90
2018-06-23T19:23:26.482Z,43.20
2018-06-23T19:25:55.566Z,42.90
2018-06-23T19:28:24.555Z,42.80
2018-06-23T19:30:54.655Z,42.80
2018-06-23T19:33:23.142Z,42.80
2018-06-23T19:35:52.215Z,42.40
2018-06-23T19:38:22.371Z,41.80
2018-06-23T19:40:51.187Z,41.60
2018-06-23T19:43:20.960Z,41.80
2018-06-23T19:45:57.364Z,42.40
2018-06-23T19:48:26.035Z,42.80
2018-06-23T19:51:01.271Z,42.90
2018-06-23T19:53:35.554Z,42.50
2018-06-23T19:56:06.627Z,42.00
2018-06-23T19:58:38.669Z,42.00
2018-06-23T20:01:08.185Z,41.90
2018-06-23T20:03:38.605Z,41.90
2018-06-23T20:06:07.833Z,41.80
2018-06-23T20:08:45.132Z,42.30
2018-06-23T20:11:17.894Z,42.70
2018-06-23T20:13:53.463Z,42.80
2018-06-23T20:16:22.820Z,42.90
2018-06-23T20:18:51.693Z,42.90
2018-06-23T20:21:21.747Z,42.80
2018-06-23T20:23:52.687Z,42.70
2018-06-23T20:26:21.679Z,43.00
2018-06-23T20:28:52.359Z,43.00
2018-06-23T20:31:21.347Z,42.40
2018-06-23T20:33:54.922Z,42.30
2018-06-23T20:36:28.515Z,42.70
2018-06-23T20:38:59.230Z,43.20
2018-06-23T20:41:30.105Z,43.50
2018-06-23T20:43:59.398Z,43.60
2018-06-23T20:46:28.755Z,44.00
2018-06-23T20:48:58.571Z,44.10
2018-06-23T20:51:34.883Z,43.20
2018-06-23T20:54:09.075Z,43.50
2018-06-23T20:56:47.102Z,43.70
2018-06-23T20:59:19.795Z,43.80
2018-06-23T21:01:52.510Z,43.90
2018-06-23T21:04:22.529Z,44.40
2018-06-23T21:06:58.929Z,45.10
2018-06-23T21:09:34.679Z,45.30
2018-06-23T21:12:04.294Z,45.60
2018-06-23T21:17:11.290Z,46.70
2018-06-23T21:19:47.447Z,47.40
2018-06-23T21:22:18.536Z,47.80
2018-06-23T21:24:48.770Z,49.00
2018-06-23T21:27:18.212Z,50.10
2018-06-23T21:29:46.652Z,51.20
2018-06-23T21:32:16.885Z,52.00
2018-06-23T21:34:48.787Z,52.70
2018-06-23T21:37:18.628Z,52.80
2018-06-23T21:39:54.482Z,52.80
2018-06-23T21:42:32.490Z,52.90
2018-06-23T21:45:02.684Z,52.90
2018-06-23T21:47:36.812Z,53.20
2018-06-23T21:50:09.606Z,53.40
2018-06-23T21:52:40.386Z,53.50
2018-06-23T21:55:16.834Z,53.60
2018-06-23T21:57:47.466Z,53.50
2018-06-23T22:00:41.467Z,53.50
2018-06-23T22:03:14.070Z,53.70
2018-06-23T22:05:44.758Z,53.80
2018-06-23T22:08:23.118Z,53.90
2018-06-23T22:10:55.464Z,54.10
2018-06-23T22:13:26.860Z,54.20
2018-06-23T22:15:55.750Z,54.30
2018-06-23T22:18:25.154Z,54.40
2018-06-23T22:20:58.402Z,54.40
2018-06-23T22:23:33.857Z,54.30
2018-06-23T22:26:07.453Z,54.50
2018-06-23T22:28:37.330Z,54.50
2018-06-23T22:31:06.703Z,54.70
2018-06-23T22:33:36.507Z,54.60
2018-06-23T22:36:04.917Z,54.40
2018-06-23T22:38:35.824Z,54.50
2018-06-23T22:43:37.364Z,54.40
2018-06-23T22:51:25.990Z,53.70
2018-06-23T22:53:57.597Z,53.60
2018-06-23T22:56:34.978Z,53.90
2018-06-23T23:01:40.286Z,53.90
2018-06-23T23:12:21.488Z,53.90
2018-06-23T23:14:58.624Z,54.00
2018-06-23T23:20:20.849Z,53.90
2018-06-23T23:25:37.554Z,54.10
2018-06-23T23:28:13.428Z,54.20
2018-06-23T23:30:46.781Z,54.30
2018-06-23T23:33:25.138Z,54.40
2018-06-23T23:36:04.597Z,54.40
2018-06-23T23:38:37.951Z,54.70
2018-06-23T23:49:09.841Z,54.90
2018-06-23T23:51:41.043Z,55.20
2018-06-23T23:54:43.312Z,55.30
2018-06-23T23:57:20.409Z,55.30
2018-06-23T23:59:53.260Z,55.20
